createdAt,value
2023-02-28T00:00:39.717Z,16.30
2023-02-28T00:03:18.688Z,14.00
2023-02-28T00:05:48.895Z,14.40
2023-02-28T00:08:16.940Z,11.80
2023-02-28T00:10:47.196Z,12.30
2023-02-28T00:13:15.276Z,12.60
2023-02-28T00:15:43.105Z,10.70
2023-02-28T00:18:10.877Z,12.90
2023-02-28T00:20:42.312Z,11.40
2023-02-28T00:23:12.388Z,10.40
2023-02-28T00:25:42.769Z,11.40
2023-02-28T00:28:10.801Z,11.50
2023-02-28T00:30:39.820Z,11.00
2023-02-28T00:33:07.713Z,11.90
2023-02-28T00:35:35.925Z,11.60
2023-02-28T00:38:05.967Z,10.90
2023-02-28T00:40:39.103Z,11.60
2023-02-28T00:43:07.082Z,12.80
2023-02-28T00:45:34.936Z,12.10
2023-02-28T00:48:02.950Z,12.40
2023-02-28T00:50:31.104Z,12.30
2023-02-28T00:52:59.217Z,13.50
2023-02-28T00:55:28.439Z,15.10
2023-02-28T00:57:56.284Z,14.90
2023-02-28T01:00:24.074Z,14.40
2023-02-28T01:02:52.164Z,15.50
2023-02-28T01:05:20.194Z,15.80
2023-02-28T01:07:48.231Z,15.70
2023-02-28T01:39:56.682Z,16.70
2023-02-28T01:42:23.442Z,15.50
2023-02-28T01:45:01.069Z,16.50
2023-02-28T01:47:36.584Z,16.70
2023-02-28T01:50:07.832Z,15.90
2023-02-28T01:52:34.753Z,15.80
2023-02-28T01:55:06.086Z,16.30
2023-02-28T01:57:38.081Z,15.20
2023-02-28T02:00:10.812Z,10.90
2023-02-28T02:02:43.877Z,15.40
2023-02-28T02:05:16.183Z,15.10
2023-02-28T02:07:50.028Z,15.40
2023-02-28T02:10:31.904Z,15.10
2023-02-28T02:13:36.182Z,16.40
2023-02-28T02:16:24.530Z,17.00
2023-02-28T02:18:55.601Z,16.70
2023-02-28T02:21:54.658Z,15.80
2023-02-28T02:24:49.352Z,17.70
2023-02-28T02:27:49.790Z,15.70
2023-02-28T02:30:24.993Z,16.90
2023-02-28T02:33:05.407Z,15.60
2023-02-28T02:35:41.518Z,16.20
2023-02-28T02:38:26.738Z,16.70
2023-02-28T02:41:25.957Z,15.70
2023-02-28T02:44:14.022Z,16.20
2023-02-28T02:46:45.741Z,14.70
2023-02-28T02:49:36.490Z,15.70
2023-02-28T02:52:08.764Z,14.20
2023-02-28T02:57:10.470Z,14.00
2023-02-28T02:59:41.771Z,12.20
2023-02-28T03:02:13.061Z,12.50
2023-02-28T03:04:44.148Z,14.00
2023-02-28T03:07:10.772Z,13.30
2023-02-28T03:09:38.028Z,13.50
2023-02-28T03:24:16.859Z,10.70
2023-02-28T03:27:44.361Z,11.80
2023-02-28T03:35:26.147Z,10.30
2023-02-28T03:38:38.817Z,10.40
2023-02-28T03:41:21.581Z,11.50
2023-02-28T03:44:19.177Z,11.60
2023-02-28T03:47:00.608Z,11.60
2023-02-28T03:49:39.392Z,11.60
2023-02-28T03:52:08.466Z,11.70
2023-02-28T03:54:43.160Z,11.30
2023-02-28T03:57:19.021Z,11.20
2023-02-28T03:59:57.003Z,11.40
2023-02-28T04:02:26.024Z,10.10
2023-02-28T04:04:52.618Z,11.50
2023-02-28T04:07:19.363Z,10.60
2023-02-28T04:09:46.049Z,13.80
2023-02-28T04:12:12.753Z,12.10
2023-02-28T04:14:39.459Z,11.20
2023-02-28T04:17:06.321Z,10.50
2023-02-28T04:19:32.841Z,10.60
2023-02-28T04:21:59.557Z,10.30
2023-02-28T04:24:28.191Z,10.80
2023-02-28T04:26:58.544Z,11.30
2023-02-28T04:29:30.317Z,12.30
2023-02-28T04:32:00.095Z,13.50
2023-02-28T04:37:11.931Z,11.90
2023-02-28T04:39:40.720Z,13.10
2023-02-28T04:42:07.484Z,11.70
2023-02-28T04:44:34.131Z,12.40
2023-02-28T04:47:00.869Z,13.30
2023-02-28T04:49:27.396Z,12.40
2023-02-28T04:51:54.380Z,12.60
2023-02-28T04:54:21.128Z,11.00
2023-02-28T04:56:50.100Z,12.30
2023-02-28T04:59:16.732Z,12.90
2023-02-28T05:01:46.839Z,12.00
2023-02-28T05:04:13.612Z,12.70
2023-02-28T05:06:40.222Z,12.30
2023-02-28T05:09:06.776Z,12.20
2023-02-28T05:11:35.508Z,11.70
2023-02-28T05:14:04.298Z,12.70
2023-02-28T05:16:31.583Z,12.20
2023-02-28T05:18:58.516Z,13.40
2023-02-28T05:21:33.293Z,12.50
2023-02-28T05:24:05.584Z,12.70
2023-02-28T05:26:36.076Z,13.00
2023-02-28T05:29:02.854Z,14.40
2023-02-28T05:31:29.784Z,13.30
2023-02-28T05:33:57.194Z,14.40
2023-02-28T05:36:24.404Z,12.80
2023-02-28T05:38:53.940Z,12.50
2023-02-28T05:41:20.873Z,12.60
2023-02-28T05:43:48.121Z,12.50
2023-02-28T05:46:17.750Z,13.10
2023-02-28T05:48:47.717Z,13.40
2023-02-28T05:51:17.310Z,13.50
2023-02-28T05:53:43.985Z,13.90
2023-02-28T05:56:12.882Z,14.40
2023-02-28T05:58:39.615Z,13.80
2023-02-28T06:01:36.089Z,15.80
2023-02-28T06:04:05.489Z,16.70
2023-02-28T06:06:36.737Z,17.00
2023-02-28T06:09:07.464Z,18.90
2023-02-28T06:11:34.133Z,17.80
2023-02-28T06:14:01.596Z,17.70
2023-02-28T06:16:34.906Z,16.80
2023-02-28T06:19:04.288Z,15.50
2023-02-28T06:21:32.051Z,17.30
2023-02-28T06:23:59.406Z,16.40
2023-02-28T06:26:29.070Z,16.70
2023-02-28T06:28:58.053Z,16.50
2023-02-28T06:31:33.032Z,16.30
2023-02-28T06:34:03.129Z,15.90
2023-02-28T06:36:29.683Z,15.90
2023-02-28T06:38:56.481Z,14.30
2023-02-28T06:41:26.672Z,15.30
2023-02-28T06:43:56.009Z,15.70
2023-02-28T06:46:23.388Z,14.90
2023-02-28T06:48:50.398Z,16.60
2023-02-28T06:51:20.691Z,17.40
2023-02-28T06:53:47.437Z,16.20
2023-02-28T06:56:18.475Z,18.10
2023-02-28T06:58:53.169Z,17.70
2023-02-28T07:01:24.185Z,18.70
2023-02-28T07:03:53.069Z,18.50
2023-02-28T07:06:22.804Z,18.80
2023-02-28T07:08:53.123Z,17.60
2023-02-28T07:11:21.695Z,17.70
2023-02-28T07:13:49.212Z,16.10
2023-02-28T07:16:16.065Z,16.00
2023-02-28T07:18:43.020Z,16.10
2023-02-28T07:21:10.664Z,14.30
2023-02-28T07:23:41.108Z,14.80
2023-02-28T07:26:14.966Z,18.50
2023-02-28T07:28:43.053Z,18.20
2023-02-28T07:31:11.020Z,16.50
2023-02-28T07:33:38.039Z,13.80
2023-02-28T07:36:07.532Z,14.10
2023-02-28T07:38:35.947Z,13.60
2023-02-28T07:41:04.649Z,13.20
2023-02-28T07:43:32.740Z,14.30
2023-02-28T07:46:05.096Z,16.70
2023-02-28T07:48:34.366Z,13.70
2023-02-28T07:51:01.050Z,14.30
2023-02-28T07:53:28.218Z,14.00
2023-02-28T07:55:56.838Z,12.00
2023-02-28T07:58:24.736Z,14.10
2023-02-28T08:00:54.058Z,13.70
2023-02-28T08:03:22.798Z,12.60
2023-02-28T08:05:50.334Z,11.50
2023-02-28T08:08:17.166Z,11.40
2023-02-28T08:10:43.952Z,11.70
2023-02-28T08:13:10.967Z,11.50
2023-02-28T08:15:42.073Z,10.50
2023-02-28T08:18:08.994Z,10.10
2023-02-28T08:20:37.946Z,10.20
2023-02-28T08:23:06.712Z,11.70
2023-02-28T08:25:33.189Z,11.20
2023-02-28T08:28:02.488Z,10.60
2023-02-28T08:30:29.161Z,11.30
2023-02-28T08:33:02.280Z,9.70
2023-02-28T08:38:12.490Z,9.80
2023-02-28T08:40:38.860Z,10.30
2023-02-28T08:43:05.604Z,10.10
2023-02-28T08:45:32.394Z,8.80
2023-02-28T08:48:01.204Z,9.00
2023-02-28T08:50:30.144Z,9.20
2023-02-28T08:52:56.595Z,10.10
2023-02-28T08:55:23.523Z,8.90
2023-02-28T08:57:52.873Z,9.40
2023-02-28T09:00:20.239Z,8.60
2023-02-28T09:02:59.066Z,9.20
2023-02-28T09:05:26.120Z,8.80
2023-02-28T09:07:52.864Z,8.80
2023-02-28T09:10:19.588Z,8.50
2023-02-28T09:12:47.452Z,8.90
2023-02-28T09:15:14.281Z,10.60
2023-02-28T09:17:40.952Z,10.20
2023-02-28T09:20:08.435Z,10.50
2023-02-28T09:22:35.647Z,11.10
2023-02-28T09:25:02.139Z,10.30
2023-02-28T09:27:28.777Z,9.30
2023-02-28T09:29:55.279Z,9.00
2023-02-28T09:32:21.753Z,9.90
2023-02-28T09:34:51.347Z,10.50
2023-02-28T09:37:17.749Z,10.50
2023-02-28T09:39:44.856Z,8.30
2023-02-28T09:42:26.782Z,9.50
2023-02-28T09:44:53.865Z,10.00
2023-02-28T09:47:46.200Z,9.40
2023-02-28T09:50:26.428Z,8.70
2023-02-28T09:52:55.269Z,9.20
2023-02-28T09:55:46.616Z,8.70
2023-02-28T09:58:56.496Z,8.70
2023-02-28T10:01:42.376Z,9.30
2023-02-28T10:04:25.530Z,9.00
2023-02-28T10:06:53.368Z,9.30
2023-02-28T10:09:25.151Z,9.00
2023-02-28T10:11:56.111Z,9.60
2023-02-28T10:14:26.266Z,9.60
2023-02-28T10:16:56.987Z,9.90
2023-02-28T10:19:33.623Z,8.80
2023-02-28T10:22:11.548Z,8.90
2023-02-28T10:24:42.921Z,9.60
2023-02-28T10:27:24.320Z,9.40
2023-02-28T10:29:57.044Z,9.20
2023-02-28T10:32:28.646Z,9.20
2023-02-28T10:35:21.059Z,10.10
2023-02-28T10:37:59.571Z,10.10
2023-02-28T10:40:32.238Z,9.90
2023-02-28T10:45:34.332Z,9.40
2023-02-28T10:50:47.085Z,8.80
2023-02-28T10:53:26.109Z,9.20
2023-02-28T10:56:05.278Z,9.20
2023-02-28T10:58:52.078Z,9.40
2023-02-28T11:01:22.576Z,8.30
2023-02-28T11:03:50.194Z,9.40
2023-02-28T11:06:26.047Z,9.00
2023-02-28T11:09:14.778Z,8.80
2023-02-28T11:11:45.796Z,9.70
2023-02-28T11:14:40.740Z,9.50
2023-02-28T11:17:25.327Z,9.60
2023-02-28T11:19:55.637Z,8.80
2023-02-28T11:22:31.475Z,10.10
2023-02-28T11:25:02.091Z,9.30
2023-02-28T11:27:46.939Z,8.80
2023-02-28T11:30:34.485Z,9.10
2023-02-28T11:33:18.855Z,9.20
2023-02-28T11:35:46.613Z,8.80
2023-02-28T11:38:15.583Z,9.50
2023-02-28T11:40:59.626Z,9.60
2023-02-28T11:43:58.210Z,8.50
2023-02-28T11:46:45.735Z,8.70
2023-02-28T11:49:31.678Z,8.70
2023-02-28T11:52:21.559Z,8.40
2023-02-28T11:55:20.732Z,8.30
2023-02-28T11:57:54.665Z,8.00
2023-02-28T12:00:31.015Z,8.20
2023-02-28T12:03:18.405Z,8.20
2023-02-28T12:06:20.744Z,8.30
2023-02-28T12:09:37.521Z,8.60
2023-02-28T12:12:25.408Z,9.00
2023-02-28T12:15:01.054Z,8.90
2023-02-28T12:17:58.692Z,8.30
2023-02-28T12:20:38.499Z,8.80
2023-02-28T12:23:19.609Z,8.10
2023-02-28T12:26:00.775Z,8.40
2023-02-28T12:28:33.383Z,8.00
2023-02-28T12:31:14.471Z,8.00
2023-02-28T12:33:50.877Z,8.30
2023-02-28T12:36:26.489Z,8.40
2023-02-28T12:39:14.721Z,8.30
2023-02-28T12:41:56.949Z,8.00
2023-02-28T12:44:31.060Z,8.70
2023-02-28T12:47:05.720Z,8.90
2023-02-28T12:49:37.690Z,8.60
2023-02-28T12:52:04.637Z,9.70
2023-02-28T12:54:58.702Z,8.60
2023-02-28T12:57:37.572Z,7.80
2023-02-28T13:00:19.556Z,8.60
2023-02-28T13:03:30.625Z,9.50
2023-02-28T13:06:18.850Z,9.40
2023-02-28T13:26:21.777Z,8.90
2023-02-28T13:28:49.520Z,9.10
2023-02-28T13:31:19.598Z,9.30
2023-02-28T13:36:18.546Z,9.10
2023-02-28T13:38:54.524Z,9.80
2023-02-28T13:41:34.718Z,9.10
2023-02-28T13:44:09.223Z,12.00
2023-02-28T13:46:49.975Z,10.40
2023-02-28T13:49:24.229Z,10.30
2023-02-28T13:52:07.684Z,10.60
2023-02-28T13:55:00.037Z,10.00
2023-02-28T13:57:59.054Z,10.60
2023-02-28T14:00:42.471Z,10.50
2023-02-28T14:03:30.287Z,10.80
2023-02-28T14:06:27.487Z,10.50
2023-02-28T14:09:36.669Z,10.90
2023-02-28T14:12:48.141Z,10.50
2023-02-28T14:15:55.953Z,11.70
2023-02-28T14:18:36.560Z,11.40
2023-02-28T14:21:35.308Z,10.90
2023-02-28T14:24:11.131Z,11.10
2023-02-28T14:27:08.889Z,11.20
2023-02-28T14:29:54.503Z,10.00
2023-02-28T14:32:31.465Z,11.40
2023-02-28T14:35:26.559Z,11.10
2023-02-28T14:37:56.086Z,10.50
2023-02-28T14:40:34.745Z,11.40
2023-02-28T14:43:05.524Z,11.00
2023-02-28T14:45:38.394Z,11.80
2023-02-28T14:54:55.819Z,12.00
2023-02-28T14:55:13.866Z,11.80
2023-02-28T14:57:53.232Z,12.00
2023-02-28T15:00:49.453Z,11.40
2023-02-28T15:03:33.691Z,11.90
2023-02-28T15:09:14.316Z,11.40
2023-02-28T15:11:46.409Z,11.80
2023-02-28T15:14:21.588Z,11.80
2023-02-28T15:17:00.459Z,11.10
2023-02-28T15:19:36.538Z,10.80
2023-02-28T15:22:17.866Z,11.60
2023-02-28T15:24:48.888Z,11.90
2023-02-28T15:27:24.964Z,11.60
2023-02-28T15:30:02.029Z,11.80
2023-02-28T15:32:36.095Z,11.00
2023-02-28T15:35:29.495Z,11.40
2023-02-28T15:38:01.865Z,12.30
2023-02-28T15:40:31.623Z,10.90
2023-02-28T15:43:06.111Z,12.40
2023-02-28T15:45:42.393Z,11.90
2023-02-28T15:48:19.608Z,11.80
2023-02-28T15:51:22.024Z,13.00
2023-02-28T15:53:57.162Z,11.50
2023-02-28T15:56:30.993Z,12.20
2023-02-28T15:59:04.899Z,12.20
2023-02-28T16:01:38.965Z,12.70
2023-02-28T16:04:21.034Z,12.30
2023-02-28T16:07:04.192Z,13.70
2023-02-28T16:09:35.148Z,13.70
2023-02-28T16:12:14.424Z,15.10
2023-02-28T16:14:43.661Z,14.30
2023-02-28T16:17:23.564Z,14.70
2023-02-28T16:19:51.659Z,15.30
2023-02-28T16:22:22.319Z,16.30
2023-02-28T16:24:50.640Z,16.80
2023-02-28T16:27:37.017Z,16.00
2023-02-28T16:30:06.933Z,18.00
2023-02-28T16:32:37.777Z,18.80
2023-02-28T16:35:10.739Z,19.40
2023-02-28T16:37:41.108Z,20.10
2023-02-28T16:40:15.967Z,21.40
2023-02-28T16:42:46.419Z,23.00
2023-02-28T16:45:24.068Z,24.60
2023-02-28T16:47:55.749Z,27.20
2023-02-28T16:50:28.698Z,26.80
2023-02-28T16:52:57.367Z,28.20
2023-02-28T16:55:27.298Z,26.50
2023-02-28T16:58:02.658Z,19.90
2023-02-28T17:00:32.631Z,17.10
2023-02-28T17:03:06.413Z,15.70
2023-02-28T17:05:39.382Z,16.30
2023-02-28T17:08:15.035Z,16.50
2023-02-28T17:10:45.671Z,15.20
2023-02-28T17:13:15.877Z,16.50
2023-02-28T17:15:47.387Z,17.20
2023-02-28T17:18:19.860Z,18.40
2023-02-28T17:20:48.949Z,18.10
2023-02-28T17:23:23.305Z,19.00
2023-02-28T17:25:58.226Z,19.70
2023-02-28T17:28:26.838Z,20.50
2023-02-28T17:30:57.021Z,20.40
2023-02-28T17:33:25.364Z,21.10
2023-02-28T17:35:53.453Z,21.30
2023-02-28T17:38:23.879Z,21.10
2023-02-28T17:40:58.077Z,21.00
2023-02-28T17:43:27.971Z,19.70
2023-02-28T17:45:57.378Z,20.20
2023-02-28T17:48:26.128Z,23.10
2023-02-28T17:50:55.112Z,21.70
2023-02-28T17:53:24.200Z,22.60
2023-02-28T17:55:52.211Z,23.20
2023-02-28T17:58:20.747Z,23.10
2023-02-28T18:00:54.811Z,22.70
2023-02-28T18:03:26.956Z,23.30
2023-02-28T18:05:55.083Z,22.30
2023-02-28T18:08:23.146Z,26.70
2023-02-28T18:10:51.473Z,25.90
2023-02-28T18:13:28.788Z,27.50
2023-02-28T18:15:57.003Z,26.20
2023-02-28T18:18:25.330Z,28.20
2023-02-28T18:20:56.988Z,26.80
2023-02-28T18:23:25.617Z,20.20
2023-02-28T18:25:54.082Z,27.10
2023-02-28T18:28:22.454Z,27.80
2023-02-28T18:30:50.479Z,28.10
2023-02-28T18:33:18.843Z,28.10
2023-02-28T18:36:06.610Z,28.20
2023-02-28T18:38:50.432Z,29.50
2023-02-28T18:41:23.543Z,27.00
2023-02-28T18:43:56.499Z,27.80
2023-02-28T18:46:34.662Z,27.20
2023-02-28T18:49:03.000Z,29.00
2023-02-28T18:51:33.332Z,29.80
2023-02-28T18:54:01.377Z,31.60
2023-02-28T18:56:30.557Z,31.60
2023-02-28T18:59:01.232Z,36.90
2023-02-28T19:01:32.141Z,35.90
2023-02-28T19:04:01.591Z,39.40
2023-02-28T19:06:31.066Z,40.40
2023-02-28T19:09:01.565Z,45.30
2023-02-28T19:11:30.138Z,51.40
2023-02-28T19:13:58.896Z,57.80
2023-02-28T19:16:28.390Z,67.80
2023-02-28T19:18:57.730Z,72.20
2023-02-28T19:21:26.357Z,63.10
2023-02-28T19:23:57.631Z,63.00
2023-02-28T19:26:28.782Z,57.30
2023-02-28T19:29:01.932Z,52.60
2023-02-28T19:31:30.567Z,53.10
2023-02-28T19:33:59.190Z,52.40
2023-02-28T19:36:29.248Z,54.10
2023-02-28T19:39:06.916Z,51.80
2023-02-28T19:41:37.863Z,50.60
2023-02-28T19:44:06.941Z,52.60
2023-02-28T19:46:37.491Z,50.60
2023-02-28T19:49:05.519Z,49.40
2023-02-28T19:51:34.426Z,47.00
2023-02-28T19:54:04.035Z,49.30
2023-02-28T19:56:32.758Z,51.80
2023-02-28T19:59:01.301Z,49.90
2023-02-28T20:01:29.517Z,50.60
2023-02-28T20:03:58.382Z,54.30
2023-02-28T20:06:26.698Z,55.30
2023-02-28T20:08:55.072Z,55.00
2023-02-28T20:11:23.226Z,57.00
2023-02-28T20:13:54.802Z,58.70
2023-02-28T20:16:23.651Z,46.10
2023-02-28T20:18:52.013Z,54.80
2023-02-28T20:21:20.297Z,53.40
2023-02-28T20:23:51.238Z,53.20
2023-02-28T20:26:20.296Z,56.00
2023-02-28T20:28:48.683Z,51.70
2023-02-28T20:31:20.694Z,54.30
2023-02-28T20:33:50.429Z,52.20
2023-02-28T20:36:25.496Z,53.90
2023-02-28T20:38:54.852Z,53.00
2023-02-28T20:41:25.221Z,54.70
2023-02-28T20:43:54.873Z,56.40
2023-02-28T20:46:25.880Z,66.00
2023-02-28T20:48:54.031Z,71.30
2023-02-28T20:51:24.527Z,65.60
2023-02-28T20:53:58.362Z,70.40
2023-02-28T20:56:29.536Z,77.30
2023-02-28T20:59:00.402Z,91.50
2023-02-28T21:01:30.702Z,102.10
2023-02-28T21:04:03.152Z,97.80
2023-02-28T21:06:37.581Z,93.10
2023-02-28T21:09:08.147Z,96.80
2023-02-28T21:11:38.690Z,105.10
2023-02-28T21:14:11.407Z,111.60
2023-02-28T21:16:44.903Z,122.30
2023-02-28T21:19:18.118Z,121.70
2023-02-28T21:21:47.869Z,130.40
2023-02-28T21:24:18.446Z,134.10
2023-02-28T21:26:47.393Z,138.50
2023-02-28T21:29:15.936Z,134.00
2023-02-28T21:31:44.294Z,140.50
2023-02-28T21:34:13.278Z,140.00
2023-02-28T21:36:45.712Z,134.70
2023-02-28T21:41:52.706Z,138.20
2023-02-28T21:44:22.734Z,143.90
2023-02-28T21:46:56.915Z,141.90
2023-02-28T21:49:25.421Z,145.90
2023-02-28T21:51:55.862Z,151.00
2023-02-28T21:54:24.439Z,151.40
2023-02-28T21:56:52.990Z,144.30
2023-02-28T21:59:21.508Z,141.40
2023-02-28T22:01:52.454Z,147.20
2023-02-28T22:04:23.471Z,146.90
2023-02-28T22:06:54.623Z,136.40
2023-02-28T22:09:27.942Z,133.30
2023-02-28T22:11:58.907Z,130.40
2023-02-28T22:14:27.070Z,123.00
2023-02-28T22:16:56.894Z,131.60
2023-02-28T22:19:26.492Z,129.30
2023-02-28T22:21:55.723Z,134.60
2023-02-28T22:24:24.767Z,137.40
2023-02-28T22:26:53.499Z,138.90
2023-02-28T22:29:21.853Z,137.80
2023-02-28T22:31:50.276Z,143.80
2023-02-28T22:34:18.258Z,138.40
2023-02-28T22:36:46.444Z,135.80
2023-02-28T22:39:16.456Z,130.30
2023-02-28T22:41:44.588Z,130.20
2023-02-28T22:44:12.463Z,128.50
2023-02-28T22:46:40.361Z,135.00
2023-02-28T22:49:08.216Z,137.20
2023-02-28T22:51:36.349Z,141.30
2023-02-28T22:54:04.682Z,136.00
2023-02-28T22:56:32.911Z,136.50
2023-02-28T22:59:01.855Z,136.10
2023-02-28T23:01:32.434Z,141.60
2023-02-28T23:04:03.683Z,138.20
2023-02-28T23:06:34.902Z,136.10
2023-02-28T23:09:06.536Z,137.40
2023-02-28T23:11:38.675Z,137.80
2023-02-28T23:14:07.385Z,136.30
2023-02-28T23:16:36.785Z,136.20
2023-02-28T23:19:10.095Z,136.30
2023-02-28T23:21:38.498Z,140.40
2023-02-28T23:24:10.645Z,136.60
2023-02-28T23:26:41.507Z,133.30
2023-02-28T23:29:09.997Z,125.20
2023-02-28T23:31:37.801Z,126.60
2023-02-28T23:34:09.281Z,125.40
2023-02-28T23:36:46.310Z,128.30
2023-02-28T23:39:19.269Z,130.40
2023-02-28T23:41:47.401Z,131.90
2023-02-28T23:44:17.032Z,134.10
2023-02-28T23:46:47.040Z,129.40
2023-02-28T23:49:16.021Z,126.20
2023-02-28T23:51:44.057Z,126.10
2023-02-28T23:54:14.462Z,125.70
2023-02-28T23:56:44.662Z,123.70
2023-02-28T23:59:12.797Z,118.30
